createdAt,value
2018-09-21T00:00:27.233Z,5.40
2018-09-21T00:02:55.822Z,6.90
2018-09-21T00:05:25.261Z,7.37
2018-09-21T00:07:54.423Z,11.07
2018-09-21T00:10:23.154Z,8.90
2018-09-21T00:12:52.038Z,8.50
2018-09-21T00:15:20.617Z,7.60
2018-09-21T00:17:49.480Z,8.10
2018-09-21T00:20:18.190Z,9.73
2018-09-21T00:22:46.718Z,11.47
2018-09-21T00:25:15.502Z,9.57
2018-09-21T00:27:44.254Z,10.70
2018-09-21T00:30:12.996Z,12.17
2018-09-21T00:32:41.554Z,12.13
2018-09-21T00:35:10.103Z,12.33
2018-09-21T00:37:38.719Z,7.87
2018-09-21T00:40:07.526Z,7.50
2018-09-21T00:42:36.449Z,7.17
2018-09-21T00:45:05.137Z,6.77
2018-09-21T00:47:33.714Z,6.97
2018-09-21T00:50:02.296Z,7.33
2018-09-21T00:52:31.486Z,11.00
2018-09-21T00:55:00.413Z,11.53
2018-09-21T00:57:29.535Z,13.57
2018-09-21T00:59:58.419Z,12.90
2018-09-21T01:02:27.153Z,11.60
2018-09-21T01:04:56.375Z,13.17
2018-09-21T01:07:25.162Z,13.90
2018-09-21T01:09:54.870Z,13.80
2018-09-21T01:12:23.979Z,14.17
2018-09-21T01:14:52.776Z,9.53
2018-09-21T01:17:21.506Z,14.07
2018-09-21T01:19:50.213Z,14.23
2018-09-21T01:22:18.662Z,13.87
2018-09-21T01:24:47.436Z,9.97
2018-09-21T01:27:16.398Z,11.67
2018-09-21T01:29:45.509Z,11.53
2018-09-21T01:32:14.258Z,12.10
2018-09-21T01:34:44.093Z,10.17
2018-09-21T01:37:12.833Z,10.63
2018-09-21T01:39:42.860Z,14.40
2018-09-21T01:42:12.514Z,11.90
2018-09-21T01:44:41.387Z,13.90
2018-09-21T01:47:10.686Z,10.83
2018-09-21T01:49:39.489Z,9.83
2018-09-21T01:52:07.990Z,7.10
2018-09-21T01:54:36.533Z,7.37
2018-09-21T01:57:05.477Z,13.93
2018-09-21T01:59:34.399Z,9.47
2018-09-21T02:02:03.019Z,12.83
2018-09-21T02:04:37.002Z,12.27
2018-09-21T02:07:06.114Z,10.03
2018-09-21T02:09:34.877Z,14.57
2018-09-21T02:12:03.907Z,8.80
2018-09-21T02:14:32.445Z,12.43
2018-09-21T02:17:01.228Z,13.73
2018-09-21T02:19:30.063Z,13.70
2018-09-21T02:21:58.594Z,14.27
2018-09-21T02:24:28.022Z,13.40
2018-09-21T02:26:57.303Z,14.43
2018-09-21T02:29:25.788Z,14.57
2018-09-21T02:31:54.356Z,12.97
2018-09-21T02:34:23.020Z,13.73
2018-09-21T02:36:51.720Z,10.03
2018-09-21T02:39:20.303Z,13.37
2018-09-21T02:41:48.952Z,9.87
2018-09-21T02:44:17.727Z,12.43
2018-09-21T02:46:46.530Z,13.77
2018-09-21T02:49:15.687Z,11.43
2018-09-21T02:51:44.308Z,9.10
2018-09-21T02:54:12.882Z,14.20
2018-09-21T02:56:42.782Z,11.00
2018-09-21T02:59:11.928Z,10.03
2018-09-21T03:01:40.790Z,9.37
2018-09-21T03:04:09.477Z,12.03
2018-09-21T03:06:37.962Z,8.83
2018-09-21T03:09:08.896Z,11.07
2018-09-21T03:11:37.679Z,8.57
2018-09-21T03:14:06.433Z,12.20
2018-09-21T03:16:35.446Z,8.67
2018-09-21T03:19:04.422Z,8.97
2018-09-21T03:21:33.254Z,15.17
2018-09-21T03:24:01.834Z,10.07
2018-09-21T03:26:31.554Z,15.07
2018-09-21T03:29:00.374Z,13.43
2018-09-21T03:31:28.848Z,15.07
2018-09-21T03:33:57.413Z,14.37
2018-09-21T03:36:25.960Z,12.90
2018-09-21T03:38:54.615Z,15.53
2018-09-21T03:41:23.430Z,15.10
2018-09-21T03:43:52.132Z,15.77
2018-09-21T03:46:20.819Z,16.93
2018-09-21T03:48:49.426Z,16.80
2018-09-21T03:51:18.978Z,16.57
2018-09-21T03:53:47.814Z,15.77
2018-09-21T03:56:16.380Z,14.30
2018-09-21T03:58:44.908Z,17.33
2018-09-21T04:01:13.485Z,11.60
2018-09-21T04:03:42.463Z,16.20
2018-09-21T04:06:11.230Z,13.93
2018-09-21T04:08:40.018Z,14.17
2018-09-21T04:11:08.556Z,14.80
2018-09-21T04:13:37.346Z,13.23
2018-09-21T04:16:09.488Z,13.77
2018-09-21T04:18:38.061Z,15.73
2018-09-21T04:21:06.642Z,15.53
2018-09-21T04:23:35.506Z,15.17
2018-09-21T04:26:04.821Z,16.23
2018-09-21T04:28:33.304Z,15.13
2018-09-21T04:31:02.006Z,16.97
2018-09-21T04:33:30.726Z,16.47
2018-09-21T04:35:59.282Z,18.83
2018-09-21T04:38:28.507Z,18.53
2018-09-21T04:40:57.231Z,14.27
2018-09-21T04:43:26.653Z,17.63
2018-09-21T04:45:55.370Z,17.07
2018-09-21T04:48:29.733Z,17.57
2018-09-21T04:50:58.198Z,17.07
2018-09-21T04:53:26.927Z,12.13
2018-09-21T04:55:55.469Z,15.13
2018-09-21T04:58:24.140Z,15.50
2018-09-21T05:00:52.776Z,16.03
2018-09-21T05:03:21.264Z,12.23
2018-09-21T05:05:50.523Z,16.40
2018-09-21T05:08:19.672Z,15.87
2018-09-21T05:10:48.326Z,15.47
2018-09-21T05:13:17.200Z,15.60
2018-09-21T05:15:45.821Z,14.20
2018-09-21T05:18:14.463Z,15.50
2018-09-21T05:20:43.020Z,12.57
2018-09-21T05:23:12.275Z,14.83
2018-09-21T05:25:41.694Z,12.67
2018-09-21T05:28:10.418Z,10.07
2018-09-21T05:30:39.374Z,10.43
2018-09-21T05:33:08.774Z,11.40
2018-09-21T05:35:37.634Z,7.70
2018-09-21T05:38:06.346Z,12.10
2018-09-21T05:40:35.002Z,10.73
2018-09-21T05:43:03.672Z,8.70
2018-09-21T05:45:32.430Z,8.63
2018-09-21T05:48:01.865Z,8.57
2018-09-21T05:50:30.439Z,8.53
2018-09-21T05:52:59.769Z,10.50
2018-09-21T05:55:28.546Z,11.83
2018-09-21T05:57:57.082Z,10.07
2018-09-21T06:00:25.665Z,11.13
2018-09-21T06:02:54.482Z,11.13
2018-09-21T06:05:23.217Z,12.43
2018-09-21T06:07:52.355Z,10.67
2018-09-21T06:10:21.111Z,13.17
2018-09-21T06:12:50.326Z,10.97
2018-09-21T06:15:20.386Z,12.90
2018-09-21T06:17:49.505Z,10.90
2018-09-21T06:20:18.158Z,12.70
2018-09-21T06:22:47.013Z,13.23
2018-09-21T06:25:15.883Z,12.67
2018-09-21T06:27:44.395Z,8.93
2018-09-21T06:30:13.782Z,10.33
2018-09-21T06:32:43.092Z,12.13
2018-09-21T06:35:11.749Z,13.33
2018-09-21T06:37:40.529Z,8.47
2018-09-21T06:40:09.994Z,10.77
2018-09-21T06:42:39.484Z,13.03
2018-09-21T06:45:08.092Z,11.57
2018-09-21T06:47:36.724Z,8.57
2018-09-21T06:50:05.283Z,9.57
2018-09-21T06:52:34.798Z,9.83
2018-09-21T06:55:03.421Z,11.13
2018-09-21T06:57:31.909Z,9.13
2018-09-21T07:00:00.461Z,7.23
2018-09-21T07:02:29.171Z,7.47
2018-09-21T07:05:03.037Z,9.33
2018-09-21T07:07:32.024Z,8.10
2018-09-21T07:10:00.772Z,5.93
2018-09-21T07:12:29.325Z,7.00
2018-09-21T07:14:57.774Z,7.00
2018-09-21T07:17:27.055Z,8.87
2018-09-21T07:19:55.777Z,8.43
2018-09-21T07:22:24.911Z,9.83
2018-09-21T07:24:54.469Z,9.83
2018-09-21T07:27:23.626Z,10.03
2018-09-21T07:29:52.595Z,8.00
2018-09-21T07:32:21.377Z,9.87
2018-09-21T07:34:50.048Z,6.57
2018-09-21T07:37:18.929Z,9.83
2018-09-21T07:39:47.758Z,9.27
2018-09-21T07:42:16.570Z,8.40
2018-09-21T07:44:46.299Z,9.30
2018-09-21T07:47:15.269Z,9.13
2018-09-21T07:49:44.304Z,7.77
2018-09-21T07:52:12.966Z,8.87
2018-09-21T07:54:41.782Z,9.63
2018-09-21T07:57:10.314Z,7.20
2018-09-21T07:59:38.782Z,5.57
2018-09-21T08:02:08.189Z,5.33
2018-09-21T08:04:37.616Z,5.10
2018-09-21T08:07:07.325Z,5.92
2018-09-21T08:09:35.930Z,5.22
2018-09-21T08:12:05.296Z,5.15
2018-09-21T08:14:33.911Z,6.15
2018-09-21T08:17:03.187Z,5.47
2018-09-21T08:19:31.996Z,5.05
2018-09-21T08:22:01.357Z,4.92
2018-09-21T08:24:30.162Z,4.55
2018-09-21T08:26:59.388Z,5.17
2018-09-21T08:29:28.002Z,4.72
2018-09-21T08:31:56.824Z,5.60
2018-09-21T08:34:25.413Z,5.37
2018-09-21T08:36:54.817Z,4.70
2018-09-21T08:39:23.784Z,4.80
2018-09-21T08:41:52.274Z,5.30
2018-09-21T08:44:21.735Z,5.50
2018-09-21T08:46:50.257Z,5.80
2018-09-21T08:49:19.103Z,6.20
2018-09-21T08:51:47.851Z,6.05
2018-09-21T08:54:16.278Z,5.35
2018-09-21T08:56:44.967Z,5.20
2018-09-21T08:59:14.193Z,5.30
2018-09-21T09:01:43.622Z,6.08
2018-09-21T09:04:12.373Z,6.20
2018-09-21T09:06:40.946Z,5.75
2018-09-21T09:09:10.282Z,5.10
2018-09-21T09:11:39.889Z,5.12
2018-09-21T09:14:08.442Z,5.00
2018-09-21T09:16:37.110Z,5.62
2018-09-21T09:19:05.599Z,5.37
2018-09-21T09:21:34.202Z,5.97
2018-09-21T09:24:03.674Z,5.75
2018-09-21T09:26:33.306Z,6.15
2018-09-21T09:29:02.438Z,5.58
2018-09-21T09:31:31.019Z,5.42
2018-09-21T09:33:59.998Z,5.85
2018-09-21T09:36:28.584Z,5.67
2018-09-21T09:38:57.688Z,5.12
2018-09-21T09:41:26.660Z,4.95
2018-09-21T09:43:55.301Z,6.03
2018-09-21T09:46:24.775Z,5.50
2018-09-21T09:48:54.546Z,5.10
2018-09-21T09:51:23.832Z,5.87
2018-09-21T09:53:52.377Z,6.03
2018-09-21T09:56:21.042Z,5.78
2018-09-21T09:58:50.633Z,6.20
2018-09-21T10:01:19.298Z,5.90
2018-09-21T10:03:48.566Z,5.78
2018-09-21T10:06:17.135Z,5.50
2018-09-21T10:08:45.920Z,5.37
2018-09-21T10:11:14.558Z,5.92
2018-09-21T10:13:43.794Z,5.55
2018-09-21T10:16:12.500Z,5.17
2018-09-21T10:18:41.684Z,5.97
2018-09-21T10:21:10.369Z,5.95
2018-09-21T10:23:39.605Z,6.10
2018-09-21T10:26:08.225Z,5.65
2018-09-21T10:28:37.051Z,4.97
2018-09-21T10:31:05.506Z,6.10
2018-09-21T10:33:34.524Z,5.78
2018-09-21T10:36:03.576Z,5.60
2018-09-21T10:38:32.358Z,5.80
2018-09-21T10:41:01.061Z,6.20
2018-09-21T10:43:29.679Z,6.28
2018-09-21T10:45:58.301Z,5.85
2018-09-21T10:48:26.789Z,5.90
2018-09-21T10:50:55.389Z,5.50
2018-09-21T10:53:24.572Z,5.70
2018-09-21T10:55:53.486Z,5.72
2018-09-21T10:58:22.389Z,6.30
2018-09-21T11:00:50.951Z,5.60
2018-09-21T11:03:19.465Z,5.45
2018-09-21T11:05:47.937Z,5.28
2018-09-21T11:08:16.737Z,5.35
2018-09-21T11:10:45.185Z,5.58
2018-09-21T11:13:14.334Z,5.12
2018-09-21T11:15:42.854Z,5.03
2018-09-21T11:18:13.488Z,5.65
2018-09-21T11:20:42.101Z,5.47
2018-09-21T11:23:10.841Z,5.42
2018-09-21T11:25:39.379Z,5.80
2018-09-21T11:28:07.904Z,5.47
2018-09-21T11:30:36.506Z,5.70
2018-09-21T11:33:05.888Z,5.45
2018-09-21T11:35:34.476Z,6.10
2018-09-21T11:38:03.263Z,5.28
2018-09-21T11:40:32.338Z,5.58
2018-09-21T11:43:01.163Z,5.28
2018-09-21T11:45:30.016Z,5.67
2018-09-21T11:47:59.307Z,5.80
2018-09-21T11:50:27.969Z,5.28
2018-09-21T11:52:56.607Z,5.53
2018-09-21T11:55:25.968Z,5.55
2018-09-21T11:57:54.819Z,5.72
2018-09-21T12:00:24.257Z,5.53
2018-09-21T12:03:06.074Z,5.83
2018-09-21T12:06:08.312Z,5.85
2018-09-21T12:12:06.624Z,5.08
2018-09-21T12:14:48.446Z,5.12
2018-09-21T12:17:17.148Z,5.25
2018-09-21T12:19:46.401Z,5.42
2018-09-21T12:22:15.008Z,5.25
2018-09-21T12:24:43.669Z,5.17
2018-09-21T12:27:13.077Z,5.45
2018-09-21T12:29:43.645Z,5.37
2018-09-21T12:32:13.402Z,5.50
2018-09-21T12:34:41.972Z,5.40
2018-09-21T12:37:10.515Z,5.80
2018-09-21T12:39:40.026Z,6.03
2018-09-21T12:42:09.343Z,6.25
2018-09-21T12:44:37.917Z,6.12
2018-09-21T12:47:07.701Z,5.78
2018-09-21T12:49:37.789Z,5.45
2018-09-21T12:52:07.208Z,6.15
2018-09-21T12:54:35.982Z,5.20
2018-09-21T12:57:04.895Z,5.87
2018-09-21T12:59:34.275Z,5.47
2018-09-21T13:02:03.755Z,4.37
2018-09-21T13:04:32.291Z,5.45
2018-09-21T13:07:01.799Z,6.12
2018-09-21T13:09:30.358Z,6.12
2018-09-21T13:11:59.689Z,6.08
2018-09-21T13:14:28.320Z,5.35
2018-09-21T13:16:57.555Z,5.55
2018-09-21T13:19:26.130Z,4.47
2018-09-21T13:21:55.355Z,4.83
2018-09-21T13:24:24.051Z,5.87
2018-09-21T13:26:52.681Z,5.85
2018-09-21T13:29:21.379Z,5.67
2018-09-21T13:31:49.921Z,5.78
2018-09-21T13:34:18.700Z,5.42
2018-09-21T13:36:48.022Z,5.75
2018-09-21T13:39:18.055Z,5.50
2018-09-21T13:41:46.960Z,5.08
2018-09-21T13:44:15.614Z,5.33
2018-09-21T13:46:45.104Z,5.62
2018-09-21T13:49:13.709Z,5.62
2018-09-21T13:51:42.448Z,5.72
2018-09-21T13:54:11.774Z,5.60
2018-09-21T13:56:40.428Z,5.67
2018-09-21T13:59:09.175Z,6.22
2018-09-21T14:01:37.993Z,5.35
2018-09-21T14:04:07.399Z,4.92
2018-09-21T14:06:36.018Z,4.95
2018-09-21T14:09:06.366Z,5.20
2018-09-21T14:11:34.985Z,5.33
2018-09-21T14:14:05.276Z,5.33
2018-09-21T14:16:34.008Z,4.62
2018-09-21T14:19:02.600Z,5.37
2018-09-21T14:21:32.023Z,4.95
2018-09-21T14:24:00.758Z,5.55
2018-09-21T14:26:30.123Z,4.62
2018-09-21T14:28:58.846Z,4.65
2018-09-21T14:31:28.116Z,5.40
2018-09-21T14:33:57.718Z,4.58
2018-09-21T14:36:26.410Z,5.10
2018-09-21T14:38:55.407Z,4.80
2018-09-21T14:41:24.139Z,4.00
2018-09-21T14:43:53.112Z,4.03
2018-09-21T14:46:22.732Z,3.83
2018-09-21T14:48:52.097Z,3.50
2018-09-21T14:51:20.914Z,2.72
2018-09-21T14:53:50.306Z,3.45
2018-09-21T14:56:20.025Z,3.75
2018-09-21T14:58:49.496Z,3.12
2018-09-21T15:01:18.245Z,3.20
2018-09-21T15:03:46.841Z,3.15
2018-09-21T15:06:15.694Z,3.12
2018-09-21T15:08:44.387Z,2.52
2018-09-21T15:11:13.586Z,2.98
2018-09-21T15:13:42.366Z,2.67
2018-09-21T15:16:11.274Z,2.65
2018-09-21T15:18:40.085Z,3.33
2018-09-21T15:21:09.643Z,2.30
2018-09-21T15:23:38.264Z,2.83
2018-09-21T15:26:07.162Z,3.05
2018-09-21T15:28:37.232Z,3.42
2018-09-21T15:31:05.828Z,3.65
2018-09-21T15:33:34.423Z,3.12
2018-09-21T15:36:03.407Z,2.60
2018-09-21T15:38:32.178Z,2.80
2018-09-21T15:41:01.337Z,2.77
2018-09-21T15:43:30.291Z,2.17
2018-09-21T15:45:59.199Z,1.50
2018-09-21T15:48:28.912Z,1.65
2018-09-21T15:50:57.429Z,1.10
2018-09-21T15:53:26.730Z,0.90
2018-09-21T15:55:55.586Z,0.97
2018-09-21T15:58:25.150Z,0.90
2018-09-21T16:00:53.764Z,0.77
2018-09-21T16:03:22.278Z,0.80
2018-09-21T16:05:51.018Z,0.63
2018-09-21T16:08:19.852Z,0.80
2018-09-21T16:10:48.562Z,1.13
2018-09-21T16:13:17.245Z,0.67
2018-09-21T16:15:45.992Z,1.00
2018-09-21T16:18:14.663Z,0.90
2018-09-21T16:20:43.344Z,0.70
2018-09-21T16:23:12.860Z,0.50
2018-09-21T16:25:41.505Z,0.60
2018-09-21T16:28:10.173Z,0.63
2018-09-21T16:30:39.294Z,0.70
2018-09-21T16:33:08.844Z,0.90
2018-09-21T16:35:37.568Z,0.90
2018-09-21T16:38:06.949Z,0.90
2018-09-21T16:40:36.319Z,1.00
2018-09-21T16:43:05.244Z,1.10
2018-09-21T16:45:34.713Z,0.80
2018-09-21T16:48:04.090Z,0.80
2018-09-21T16:50:33.342Z,0.60
2018-09-21T16:53:02.112Z,0.97
2018-09-21T16:55:30.806Z,0.80
2018-09-21T16:58:00.053Z,0.70
2018-09-21T17:00:29.052Z,0.73
2018-09-21T17:02:57.682Z,0.80
2018-09-21T17:05:26.412Z,0.70
2018-09-21T17:07:55.317Z,0.77
2018-09-21T17:10:24.110Z,0.90
2018-09-21T17:12:52.778Z,0.90
2018-09-21T17:15:21.582Z,0.93
2018-09-21T17:17:50.948Z,1.30
2018-09-21T17:20:19.644Z,1.23
2018-09-21T17:22:49.800Z,1.37
2018-09-21T17:25:19.918Z,1.10
2018-09-21T17:27:48.731Z,1.23
2018-09-21T17:30:17.557Z,0.97
2018-09-21T17:32:50.176Z,1.33
2018-09-21T17:35:19.651Z,1.37
2018-09-21T17:37:48.502Z,1.60
2018-09-21T17:40:17.194Z,0.90
2018-09-21T17:42:48.212Z,1.30
2018-09-21T17:45:17.686Z,1.70
2018-09-21T17:47:47.108Z,1.60
2018-09-21T17:50:16.242Z,1.30
2018-09-21T17:52:44.946Z,1.33
2018-09-21T17:55:13.737Z,1.60
2018-09-21T17:57:42.399Z,1.47
2018-09-21T18:00:10.935Z,1.83
2018-09-21T18:02:39.466Z,1.60
2018-09-21T18:05:08.087Z,2.30
2018-09-21T18:07:37.315Z,1.70
2018-09-21T18:10:06.199Z,1.77
2018-09-21T18:12:34.762Z,1.60
2018-09-21T18:15:03.456Z,2.27
2018-09-21T18:17:32.739Z,1.90
2018-09-21T18:20:02.181Z,1.87
2018-09-21T18:22:30.805Z,1.90
2018-09-21T18:24:59.441Z,1.67
2018-09-21T18:27:28.043Z,1.50
2018-09-21T18:29:57.256Z,1.50
2018-09-21T18:32:26.159Z,1.27
2018-09-21T18:34:55.299Z,1.73
2018-09-21T18:37:26.322Z,1.40
2018-09-21T18:39:55.752Z,2.13
2018-09-21T18:42:24.962Z,1.80
2018-09-21T18:44:53.840Z,2.13
2018-09-21T18:47:22.462Z,2.27
2018-09-21T18:49:51.058Z,2.37
2018-09-21T18:52:20.025Z,2.20
2018-09-21T18:54:49.182Z,2.17
2018-09-21T18:57:17.856Z,2.07
2018-09-21T18:59:46.858Z,1.47
2018-09-21T19:02:15.596Z,1.63
2018-09-21T19:04:44.673Z,1.67
2018-09-21T19:07:20.481Z,2.10
2018-09-21T19:09:49.352Z,2.10
2018-09-21T19:12:19.386Z,2.17
2018-09-21T19:14:48.140Z,1.50
2018-09-21T19:17:17.058Z,1.40
2018-09-21T19:19:46.068Z,1.60
2018-09-21T19:22:16.082Z,1.63
2018-09-21T19:24:45.297Z,1.97
2018-09-21T19:27:16.118Z,1.70
2018-09-21T19:29:52.706Z,1.53
2018-09-21T19:32:23.115Z,1.30
2018-09-21T19:34:52.229Z,1.50
2018-09-21T19:37:27.154Z,1.30
2018-09-21T19:39:57.274Z,1.50
2018-09-21T19:42:27.010Z,1.10
2018-09-21T19:44:55.889Z,1.50
2018-09-21T19:47:24.760Z,1.40
2018-09-21T19:49:53.590Z,1.20
2018-09-21T19:52:22.682Z,1.13
2018-09-21T19:54:51.757Z,1.73
2018-09-21T19:57:20.355Z,1.50
2018-09-21T19:59:49.319Z,1.23
2018-09-21T20:02:18.298Z,1.60
2018-09-21T20:04:47.769Z,1.27
2018-09-21T20:07:17.387Z,1.40
2018-09-21T20:09:46.061Z,1.30
2018-09-21T20:12:15.317Z,1.63
2018-09-21T20:14:44.152Z,1.20
2018-09-21T20:17:13.122Z,1.73
2018-09-21T20:19:41.751Z,1.40
2018-09-21T20:22:21.144Z,1.03
2018-09-21T20:24:49.963Z,1.40
2018-09-21T20:27:18.937Z,1.40
2018-09-21T20:29:47.585Z,1.30
2018-09-21T20:33:24.499Z,1.40
2018-09-21T20:35:53.896Z,1.27
2018-09-21T20:38:22.413Z,1.17
2018-09-21T20:40:50.941Z,1.83
2018-09-21T20:43:19.955Z,1.57
2018-09-21T20:45:48.523Z,1.30
2018-09-21T20:48:17.553Z,1.40
2018-09-21T20:50:47.017Z,1.37
2018-09-21T20:53:15.616Z,1.50
2018-09-21T20:55:44.219Z,1.17
2018-09-21T20:58:12.726Z,1.00
2018-09-21T21:00:41.284Z,1.23
2018-09-21T21:03:09.874Z,1.10
2018-09-21T21:05:38.458Z,1.10
2018-09-21T21:08:06.943Z,1.40
2018-09-21T21:10:35.533Z,1.37
2018-09-21T21:13:04.046Z,1.27
2018-09-21T21:15:32.542Z,0.93
2018-09-21T21:18:01.118Z,1.47
2018-09-21T21:20:29.747Z,1.40
2018-09-21T21:22:58.318Z,1.33
2018-09-21T21:25:26.876Z,1.30
2018-09-21T21:27:55.506Z,1.03
2018-09-21T21:30:24.154Z,1.20
2018-09-21T21:32:52.690Z,1.20
2018-09-21T21:35:22.237Z,1.23
2018-09-21T21:37:50.677Z,1.33
2018-09-21T21:40:19.454Z,1.00
2018-09-21T21:42:48.698Z,1.30
2018-09-21T21:45:17.330Z,1.50
2018-09-21T21:47:45.896Z,1.40
2018-09-21T21:50:14.738Z,1.33
2018-09-21T21:52:43.276Z,1.20
2018-09-21T21:55:11.929Z,1.10
2018-09-21T21:57:40.446Z,1.43
2018-09-21T22:00:09.635Z,1.00
2018-09-21T22:02:38.169Z,1.20
2018-09-21T22:05:07.090Z,1.47
2018-09-21T22:07:37.731Z,1.20
2018-09-21T22:10:08.216Z,1.13
2018-09-21T22:12:42.973Z,1.73
2018-09-21T22:15:15.438Z,1.13
2018-09-21T22:17:44.376Z,1.50
2018-09-21T22:20:13.236Z,1.17
2018-09-21T22:22:41.963Z,1.57
2018-09-21T22:25:11.617Z,1.40
2018-09-21T22:27:40.493Z,1.20
2018-09-21T22:30:09.459Z,1.70
2018-09-21T22:32:38.821Z,1.70
2018-09-21T22:35:07.650Z,1.23
2018-09-21T22:37:36.488Z,1.40
2018-09-21T22:40:05.298Z,1.20
2018-09-21T22:42:35.017Z,0.97
2018-09-21T22:45:04.192Z,1.07
2018-09-21T22:47:34.264Z,1.30
2018-09-21T22:50:04.051Z,1.20
2018-09-21T22:52:32.683Z,1.10
2018-09-21T22:55:01.427Z,1.03
2018-09-21T22:57:30.622Z,1.40
2018-09-21T22:59:59.279Z,1.40
2018-09-21T23:02:28.101Z,1.50
2018-09-21T23:04:56.663Z,1.20
2018-09-21T23:07:26.157Z,1.10
2018-09-21T23:09:54.980Z,1.20
2018-09-21T23:12:24.294Z,1.40
2018-09-21T23:14:52.924Z,1.33
2018-09-21T23:17:21.443Z,1.10
2018-09-21T23:19:50.275Z,1.20
2018-09-21T23:22:19.661Z,1.10
2018-09-21T23:24:48.219Z,1.23
2018-09-21T23:27:16.829Z,1.30
2018-09-21T23:29:45.447Z,0.80
2018-09-21T23:32:14.996Z,1.10
2018-09-21T23:34:43.473Z,1.00
2018-09-21T23:37:12.167Z,1.07
2018-09-21T23:39:40.723Z,1.30
2018-09-21T23:42:10.005Z,1.60
2018-09-21T23:44:38.688Z,1.30
2018-09-21T23:47:07.213Z,1.40
2018-09-21T23:49:35.901Z,1.43
2018-09-21T23:52:04.925Z,1.50
2018-09-21T23:54:34.280Z,1.43
2018-09-21T23:57:02.831Z,1.10
2018-09-21T23:59:32.125Z,1.03
